Time;durP1;ratioP1;P1;durP2;ratioP2;P2;SDS_P1;SDS_P2;PMS_P1;PMS_P2;Temp;Humidity;BMP_temperature;BMP_pressure;BME280_temperature;BME280_humidity;BME280_pressure;Samples;Min_cycle;Max_cycle;Signal;HPM_P1;HPM_P2
2022/01/21 00:00:20;;;;;;;7.73;4.57;;;-0.60;99.90;;;;;;5031943;28;20221;-69
2022/01/21 00:02:47;;;;;;;7.60;4.80;;;-0.60;99.90;;;;;;5032138;28;20646;-67
2022/01/21 00:05:14;;;;;;;12.77;4.80;;;-0.60;99.90;;;;;;5031912;28;20285;-66
2022/01/21 00:07:41;;;;;;;7.53;4.87;;;-0.60;99.90;;;;;;5034865;28;20208;-66
2022/01/21 00:10:09;;;;;;;9.63;4.43;;;-0.60;99.90;;;;;;5047824;28;20229;-69
2022/01/21 00:12:36;;;;;;;9.50;4.90;;;-0.60;99.90;;;;;;5053659;28;20229;-68
2022/01/21 00:15:07;;;;;;;11.10;5.53;;;-0.70;99.90;;;;;;5035056;28;20218;-66
2022/01/21 00:17:34;;;;;;;8.73;5.03;;;-0.60;99.90;;;;;;5035595;28;20190;-68
2022/01/21 00:30:59;;;;;;;12.93;5.13;;;-0.70;99.90;;;;;;5048659;28;20297;-67
2022/01/21 00:33:26;;;;;;;7.70;4.57;;;-0.70;99.90;;;;;;5035359;28;20213;-68
2022/01/21 00:35:53;;;;;;;9.53;4.77;;;-0.70;99.90;;;;;;5035431;28;20202;-68
2022/01/21 00:38:21;;;;;;;10.70;4.73;;;-0.70;99.90;;;;;;5035171;28;20202;-68
2022/01/21 00:40:48;;;;;;;8.37;4.40;;;-0.70;99.90;;;;;;5034745;28;20632;-67
2022/01/21 00:43:20;;;;;;;8.30;4.73;;;-0.70;99.90;;;;;;5035061;28;20205;-68
2022/01/21 00:45:48;;;;;;;14.47;4.77;;;-0.70;99.90;;;;;;5035399;28;20190;-67
2022/01/21 00:48:17;;;;;;;9.00;4.50;;;-0.60;99.90;;;;;;5035070;28;20538;-67
2022/01/21 00:50:44;;;;;;;6.20;4.20;;;-0.60;99.90;;;;;;5035039;28;20241;-68
2022/01/21 00:53:10;;;;;;;10.77;4.43;;;-0.60;99.90;;;;;;5042564;28;20244;-68
2022/01/21 00:55:37;;;;;;;7.47;4.30;;;-0.60;99.90;;;;;;5053755;28;20205;-68
2022/01/21 00:58:04;;;;;;;7.20;3.97;;;-0.70;99.90;;;;;;5034672;28;20207;-67
2022/01/21 01:00:31;;;;;;;9.07;4.70;;;-0.70;99.90;;;;;;5035174;28;20208;-66
2022/01/21 01:02:58;;;;;;;7.80;4.43;;;-0.70;99.90;;;;;;5034489;28;20205;-67
2022/01/21 01:05:27;;;;;;;8.90;4.30;;;-0.70;99.90;;;;;;5034964;28;20216;-66
2022/01/21 01:07:55;;;;;;;9.07;4.30;;;-0.70;99.90;;;;;;5034402;28;20210;-67
2022/01/21 01:10:37;;;;;;;11.17;4.47;;;-0.70;99.90;;;;;;5041930;28;20727;-67
2022/01/21 01:21:15;;;;;;;8.73;4.03;;;-0.80;99.90;;;;;;5049995;28;20197;-68
2022/01/21 01:24:02;;;;;;;8.37;4.27;;;-0.80;99.90;;;;;;5053996;28;20213;-68
2022/01/21 01:29:13;;;;;;;8.70;4.23;;;-0.90;99.90;;;;;;5050395;28;20271;-67
2022/01/21 01:31:40;;;;;;;9.63;4.03;;;-0.90;99.90;;;;;;5033777;28;20284;-68
2022/01/21 01:34:07;;;;;;;11.67;4.50;;;-0.80;99.90;;;;;;5034302;28;20206;-68
2022/01/21 01:36:36;;;;;;;7.30;4.23;;;-0.80;99.90;;;;;;5033884;28;20216;-69
2022/01/21 01:39:11;;;;;;;7.17;4.10;;;-0.80;99.90;;;;;;5034056;28;20210;-67
2022/01/21 01:41:43;;;;;;;9.93;4.33;;;-0.80;99.90;;;;;;5034237;28;20190;-67
2022/01/21 01:49:50;;;;;;;7.43;3.60;;;-0.90;99.90;;;;;;4952478;29;20201;-67
2022/01/21 01:52:19;;;;;;;7.30;3.90;;;-1.00;99.90;;;;;;4999261;28;20706;-67
2022/01/21 01:54:49;;;;;;;11.33;4.53;;;-1.00;99.90;;;;;;5022887;28;20732;-67
2022/01/21 01:57:16;;;;;;;8.60;4.03;;;-1.00;99.90;;;;;;5033862;28;20661;-69
2022/01/21 01:59:43;;;;;;;7.77;3.80;;;-1.10;99.90;;;;;;5033835;28;20213;-68
2022/01/21 02:02:14;;;;;;;8.47;3.70;;;-1.10;99.90;;;;;;5033460;28;20208;-67
2022/01/21 02:04:42;;;;;;;7.57;3.67;;;-1.10;99.90;;;;;;5033187;28;20197;-68
2022/01/21 02:07:09;;;;;;;8.17;3.70;;;-1.10;99.90;;;;;;5033012;28;20210;-67
2022/01/21 02:09:37;;;;;;;8.83;4.00;;;-1.20;99.90;;;;;;5033317;28;20232;-67
2022/01/21 02:12:07;;;;;;;11.60;4.70;;;-1.20;99.90;;;;;;5033545;28;20214;-67
2022/01/21 02:14:36;;;;;;;7.37;4.50;;;-1.20;99.90;;;;;;5033179;28;20212;-68
2022/01/21 02:17:16;;;;;;;8.73;4.23;;;-1.20;99.90;;;;;;5031642;28;20202;-68
2022/01/21 02:22:30;;;;;;;8.30;4.27;;;-1.20;99.90;;;;;;5032991;28;20193;-68
2022/01/21 02:24:59;;;;;;;11.77;4.67;;;-1.20;99.90;;;;;;5033254;28;20225;-67
2022/01/21 02:27:27;;;;;;;10.97;4.30;;;-1.20;99.90;;;;;;5032983;28;20221;-67
2022/01/21 02:29:59;;;;;;;8.60;4.43;;;-1.20;99.90;;;;;;5033026;28;20240;-67
2022/01/21 02:32:26;;;;;;;7.77;3.60;;;-1.20;99.90;;;;;;5032149;28;20573;-66
2022/01/21 02:34:53;;;;;;;11.67;4.20;;;-1.20;99.90;;;;;;5032944;28;20209;-66
2022/01/21 02:37:22;;;;;;;8.13;4.00;;;-1.10;99.90;;;;;;5032590;28;20281;-66
2022/01/21 02:39:51;;;;;;;9.67;3.70;;;-1.10;99.90;;;;;;5032807;28;20206;-66
2022/01/21 02:42:18;;;;;;;9.83;4.10;;;-1.10;99.90;;;;;;5032795;28;20198;-67
2022/01/21 02:44:45;;;;;;;11.00;4.20;;;-1.10;99.90;;;;;;5038122;28;20617;-67
2022/01/21 02:47:12;;;;;;;8.53;4.00;;;-1.10;99.90;;;;;;5032645;28;20210;-66
2022/01/21 02:49:39;;;;;;;7.73;3.97;;;-1.10;99.90;;;;;;5032650;28;20702;-67
2022/01/21 02:52:07;;;;;;;7.57;4.00;;;-1.10;99.90;;;;;;5032142;28;20231;-67
2022/01/21 02:54:35;;;;;;;7.60;3.50;;;-1.10;99.90;;;;;;5032151;28;20234;-67
2022/01/21 02:57:05;;;;;;;10.30;3.97;;;-1.10;99.90;;;;;;5032080;28;20205;-66
2022/01/21 02:59:33;;;;;;;9.43;3.77;;;-1.10;99.90;;;;;;5032520;28;20191;-66
2022/01/21 03:02:01;;;;;;;8.33;3.53;;;-1.10;99.90;;;;;;5032259;28;20206;-68
2022/01/21 03:04:34;;;;;;;9.10;3.70;;;-1.10;99.90;;;;;;5031403;28;20206;-68
2022/01/21 03:07:01;;;;;;;6.83;3.33;;;-1.10;99.90;;;;;;5032034;28;20635;-67
2022/01/21 03:09:28;;;;;;;7.50;3.60;;;-1.10;99.90;;;;;;5031692;28;20206;-66
2022/01/21 03:11:55;;;;;;;9.07;3.90;;;-1.10;99.90;;;;;;5032186;28;20214;-66
2022/01/21 03:14:23;;;;;;;6.73;3.67;;;-1.10;99.90;;;;;;5031811;28;20351;-66
2022/01/21 03:16:50;;;;;;;8.47;3.87;;;-1.20;99.90;;;;;;5032090;28;20674;-66
2022/01/21 03:19:17;;;;;;;6.57;3.73;;;-1.20;99.90;;;;;;5032104;28;20210;-67
2022/01/21 03:21:43;;;;;;;9.33;3.83;;;-1.20;99.90;;;;;;5031906;28;20206;-67
2022/01/21 03:24:11;;;;;;;8.03;3.80;;;-1.20;99.90;;;;;;5031316;28;20221;-67
2022/01/21 03:26:37;;;;;;;7.10;4.17;;;-1.20;99.90;;;;;;5032135;28;20684;-67
2022/01/21 03:29:06;;;;;;;7.57;3.60;;;-1.20;99.90;;;;;;5032160;28;20206;-66
2022/01/21 03:31:34;;;;;;;6.40;3.77;;;-1.20;99.90;;;;;;5031815;28;20677;-68
2022/01/21 03:34:01;;;;;;;7.97;3.80;;;-1.20;99.90;;;;;;5032154;28;20210;-67
2022/01/21 03:36:29;;;;;;;8.20;4.20;;;-1.20;99.90;;;;;;5032019;28;20202;-66
2022/01/21 03:38:56;;;;;;;8.60;4.50;;;-1.20;99.90;;;;;;5031145;28;20198;-67
2022/01/21 03:41:23;;;;;;;6.90;4.17;;;-1.20;99.90;;;;;;5031835;28;20221;-67
2022/01/21 03:43:50;;;;;;;7.23;4.00;;;-1.30;99.90;;;;;;5033160;28;20224;-67
2022/01/21 03:46:17;;;;;;;6.77;4.30;;;-1.30;99.90;;;;;;5035705;28;20202;-68
2022/01/21 03:48:48;;;;;;;5.73;4.07;;;-1.40;99.90;;;;;;5035736;28;20220;-66
2022/01/21 03:51:15;;;;;;;8.57;4.50;;;-1.40;99.90;;;;;;5035289;28;20200;-65
2022/01/21 03:53:44;;;;;;;7.53;4.63;;;-1.50;99.90;;;;;;5035109;28;20232;-67
2022/01/21 03:56:10;;;;;;;7.73;4.57;;;-1.50;99.90;;;;;;5035213;28;20217;-66
2022/01/21 03:58:37;;;;;;;8.43;5.03;;;-1.60;99.90;;;;;;5035172;28;20214;-67
2022/01/21 04:01:04;;;;;;;10.63;4.90;;;-1.60;99.90;;;;;;5035218;28;20201;-67
2022/01/21 04:03:32;;;;;;;7.77;4.63;;;-1.60;99.90;;;;;;5035268;28;20202;-66
2022/01/21 04:06:01;;;;;;;8.83;4.67;;;-1.60;99.90;;;;;;5035217;28;20811;-67
2022/01/21 04:08:28;;;;;;;9.50;4.87;;;-1.70;99.90;;;;;;5035174;28;20542;-67
2022/01/21 04:10:55;;;;;;;10.53;5.37;;;-1.70;99.90;;;;;;5034894;28;20238;-67
2022/01/21 04:13:23;;;;;;;9.30;5.10;;;-1.70;99.90;;;;;;5034248;28;20572;-67
2022/01/21 04:15:52;;;;;;;9.63;5.40;;;-1.80;99.90;;;;;;5035169;28;20305;-66
2022/01/21 04:18:22;;;;;;;9.10;5.30;;;-1.70;99.90;;;;;;5034962;28;20206;-68
2022/01/21 04:20:49;;;;;;;8.40;5.07;;;-1.70;99.90;;;;;;5034630;28;20214;-67
2022/01/21 04:23:20;;;;;;;10.17;5.00;;;-1.70;99.90;;;;;;5034641;28;20670;-67
2022/01/21 04:25:47;;;;;;;9.70;5.10;;;-1.70;99.90;;;;;;5035215;28;20186;-67
2022/01/21 04:28:14;;;;;;;8.43;4.70;;;-1.70;99.90;;;;;;5034792;28;20206;-68
2022/01/21 04:30:42;;;;;;;10.67;5.27;;;-1.70;99.90;;;;;;5034571;28;20205;-67
2022/01/21 04:33:09;;;;;;;7.27;4.90;;;-1.70;99.90;;;;;;5034051;28;20686;-66
2022/01/21 04:35:36;;;;;;;11.00;4.93;;;-1.60;99.90;;;;;;5034781;28;20210;-67
2022/01/21 04:38:07;;;;;;;11.17;5.60;;;-1.70;99.90;;;;;;5034542;28;20209;-67
2022/01/21 04:40:42;;;;;;;11.00;5.13;;;-1.70;99.90;;;;;;5034351;28;20218;-68
2022/01/21 04:48:37;;;;;;;10.07;5.13;;;-1.80;99.90;;;;;;5034452;28;20328;-67
2022/01/21 04:51:14;;;;;;;12.13;5.40;;;-1.70;99.90;;;;;;5034463;28;20202;-67
2022/01/21 04:53:42;;;;;;;9.40;4.97;;;-1.70;99.90;;;;;;5034607;28;20229;-67
2022/01/21 04:56:11;;;;;;;10.23;5.30;;;-1.70;99.90;;;;;;5033353;28;20206;-66
2022/01/21 04:58:38;;;;;;;8.73;5.40;;;-1.70;99.90;;;;;;5014803;28;20578;-68
2022/01/21 05:01:06;;;;;;;10.37;5.40;;;-1.70;99.90;;;;;;5014505;28;20202;-66
2022/01/21 05:03:34;;;;;;;9.50;4.97;;;-1.70;99.90;;;;;;5014836;28;20663;-66
2022/01/21 05:06:01;;;;;;;11.10;5.27;;;-1.70;99.90;;;;;;5021368;28;20198;-67
2022/01/21 05:08:32;;;;;;;9.77;5.20;;;-1.60;99.90;;;;;;5034044;28;20240;-66
2022/01/21 05:11:01;;;;;;;13.20;5.47;;;-1.60;99.90;;;;;;5033659;28;20234;-68
2022/01/21 05:13:36;;;;;;;8.73;5.17;;;-1.60;99.90;;;;;;5033941;28;20599;-66
2022/01/21 05:16:06;;;;;;;10.93;5.47;;;-1.60;99.90;;;;;;5033996;28;20603;-66
2022/01/21 05:18:34;;;;;;;11.70;5.70;;;-1.60;99.90;;;;;;5034269;28;20706;-67
2022/01/21 05:21:01;;;;;;;7.77;5.00;;;-1.50;99.90;;;;;;5034030;28;20568;-67
2022/01/21 05:23:29;;;;;;;9.40;4.90;;;-1.60;99.90;;;;;;5033427;28;20212;-67
2022/01/21 05:25:56;;;;;;;9.20;5.50;;;-1.60;99.90;;;;;;5033929;28;20205;-65
2022/01/21 05:28:23;;;;;;;8.60;4.97;;;-1.60;99.90;;;;;;5034114;28;20210;-65
2022/01/21 05:30:51;;;;;;;15.33;5.77;;;-1.50;99.90;;;;;;5033628;28;20242;-65
2022/01/21 05:33:18;;;;;;;13.17;5.90;;;-1.50;99.90;;;;;;5033808;28;20328;-65
2022/01/21 05:35:45;;;;;;;10.47;5.10;;;-1.50;99.90;;;;;;5033544;28;20220;-66
2022/01/21 05:38:11;;;;;;;10.27;5.20;;;-1.50;99.90;;;;;;5033471;28;20198;-65
2022/01/21 05:40:38;;;;;;;11.47;5.40;;;-1.50;99.90;;;;;;5033602;28;20210;-66
2022/01/21 05:43:06;;;;;;;8.57;5.37;;;-1.50;99.90;;;;;;5043613;28;20204;-64
2022/01/21 05:48:27;;;;;;;9.53;5.10;;;-1.50;99.90;;;;;;5005972;28;20202;-66
2022/01/21 05:50:54;;;;;;;10.63;5.30;;;-1.50;99.90;;;;;;5053611;28;20792;-66
2022/01/21 05:53:22;;;;;;;10.80;5.60;;;-1.50;99.90;;;;;;5048929;28;20220;-65
2022/01/21 05:55:49;;;;;;;8.97;4.93;;;-1.50;99.90;;;;;;5033199;28;20225;-65
2022/01/21 05:58:16;;;;;;;9.27;5.33;;;-1.50;99.90;;;;;;5033309;28;20698;-65
2022/01/21 06:00:43;;;;;;;11.07;4.90;;;-1.40;99.90;;;;;;5033517;28;20577;-65
2022/01/21 06:03:11;;;;;;;9.07;4.97;;;-1.50;99.90;;;;;;5033174;28;20260;-66
2022/01/21 06:05:40;;;;;;;8.80;5.20;;;-1.40;99.90;;;;;;5033405;28;20209;-64
2022/01/21 06:08:07;;;;;;;9.43;5.00;;;-1.40;99.90;;;;;;5033154;28;20295;-65
2022/01/21 06:10:34;;;;;;;12.27;5.20;;;-1.40;99.90;;;;;;5033006;28;20241;-65
2022/01/21 06:13:00;;;;;;;9.57;5.20;;;-1.40;99.90;;;;;;5033058;28;20225;-66
2022/01/21 06:15:27;;;;;;;11.23;5.40;;;-1.40;99.90;;;;;;5033240;28;20249;-65
2022/01/21 06:17:54;;;;;;;11.77;5.27;;;-1.30;99.90;;;;;;5032923;28;20217;-66
2022/01/21 06:20:21;;;;;;;14.60;5.10;;;-1.40;99.90;;;;;;5033373;28;20217;-65
2022/01/21 06:22:50;;;;;;;12.07;5.50;;;-1.30;99.90;;;;;;5033104;28;20198;-65
2022/01/21 06:25:16;;;;;;;8.53;5.13;;;-1.30;99.90;;;;;;5033129;28;20232;-66
2022/01/21 06:27:45;;;;;;;13.07;5.97;;;-1.30;99.90;;;;;;5032737;28;20210;-65
2022/01/21 06:30:13;;;;;;;15.20;6.43;;;-1.30;99.90;;;;;;5032739;28;20206;-66
2022/01/21 06:32:40;;;;;;;13.60;5.70;;;-1.30;99.90;;;;;;5032865;28;20202;-66
2022/01/21 06:35:08;;;;;;;11.27;5.80;;;-1.30;99.90;;;;;;5032818;28;20572;-67
2022/01/21 06:37:35;;;;;;;10.20;5.13;;;-1.30;99.90;;;;;;5032697;28;20565;-67
2022/01/21 06:40:04;;;;;;;13.27;5.70;;;-1.30;99.90;;;;;;5032260;28;20217;-67
2022/01/21 06:42:31;;;;;;;9.90;5.03;;;-1.30;99.90;;;;;;5032742;28;20351;-66
2022/01/21 06:45:00;;;;;;;10.60;5.67;;;-1.20;99.90;;;;;;5032638;28;20241;-66
2022/01/21 06:47:27;;;;;;;9.50;5.73;;;-1.20;99.90;;;;;;5032602;28;20206;-65
2022/01/21 06:49:54;;;;;;;10.77;5.53;;;-1.20;99.90;;;;;;5032009;28;20202;-65
2022/01/21 06:52:21;;;;;;;9.70;5.37;;;-1.20;99.90;;;;;;5032523;28;20738;-66
2022/01/21 06:54:48;;;;;;;12.30;5.83;;;-1.20;99.90;;;;;;5031974;28;20230;-65
2022/01/21 06:57:16;;;;;;;10.80;5.63;;;-1.20;99.90;;;;;;5032537;28;20217;-66
2022/01/21 06:59:43;;;;;;;11.90;5.50;;;-1.20;99.90;;;;;;5032236;28;20226;-65
2022/01/21 07:02:10;;;;;;;11.90;5.37;;;-1.20;99.90;;;;;;5031837;28;20216;-66
2022/01/21 07:04:37;;;;;;;9.50;6.13;;;-1.20;99.90;;;;;;5031987;28;20213;-66
2022/01/21 07:07:04;;;;;;;10.60;5.70;;;-1.20;99.90;;;;;;5032196;28;20210;-67
2022/01/21 07:09:31;;;;;;;13.40;6.53;;;-1.30;99.90;;;;;;5032393;28;20329;-64
2022/01/21 07:11:58;;;;;;;13.63;6.40;;;-1.20;99.90;;;;;;5032310;28;20452;-66
2022/01/21 07:14:27;;;;;;;16.53;7.33;;;-1.30;99.90;;;;;;5032148;28;20234;-66
2022/01/21 07:16:53;;;;;;;13.90;6.43;;;-1.20;99.90;;;;;;5032082;28;20206;-65
2022/01/21 07:19:20;;;;;;;12.67;6.77;;;-1.20;99.90;;;;;;5031469;28;20217;-65
2022/01/21 07:21:47;;;;;;;11.77;6.00;;;-1.30;99.90;;;;;;5031843;28;20206;-67
2022/01/21 07:24:14;;;;;;;10.77;6.60;;;-1.30;99.90;;;;;;5031697;28;20212;-67
2022/01/21 07:26:41;;;;;;;13.53;6.50;;;-1.20;99.90;;;;;;5031790;28;20210;-65
2022/01/21 07:29:07;;;;;;;14.10;6.07;;;-1.20;99.90;;;;;;5032123;28;20208;-65
2022/01/21 07:31:36;;;;;;;9.87;5.97;;;-1.20;99.90;;;;;;5032031;28;20210;-66
2022/01/21 07:34:06;;;;;;;9.83;5.70;;;-1.10;99.90;;;;;;5031941;28;20232;-66
2022/01/21 07:36:33;;;;;;;9.93;5.37;;;-1.10;99.90;;;;;;5032278;28;20194;-66
2022/01/21 07:39:00;;;;;;;11.23;6.00;;;-1.10;99.90;;;;;;5032430;28;20209;-65
2022/01/21 07:41:27;;;;;;;11.17;5.80;;;-1.00;99.90;;;;;;5040322;28;20197;-66
2022/01/21 07:43:53;;;;;;;8.30;5.47;;;-1.00;99.90;;;;;;5047791;28;20201;-68
2022/01/21 07:46:21;;;;;;;9.73;5.40;;;-1.00;99.90;;;;;;5032023;28;20205;-67
2022/01/21 07:48:49;;;;;;;10.77;5.50;;;-0.90;99.90;;;;;;5031406;28;20643;-66
2022/01/21 07:51:16;;;;;;;9.23;4.97;;;-0.90;99.90;;;;;;5032125;28;20688;-66
2022/01/21 07:53:43;;;;;;;18.67;5.93;;;-0.90;99.90;;;;;;5031980;28;20349;-67
2022/01/21 07:56:10;;;;;;;11.03;6.00;;;-0.80;99.90;;;;;;5032053;28;20237;-68
2022/01/21 07:58:37;;;;;;;13.73;5.73;;;-0.80;99.90;;;;;;5031718;28;20705;-67
2022/01/21 08:01:04;;;;;;;9.77;5.70;;;-0.70;99.90;;;;;;5031185;28;20209;-65
2022/01/21 08:03:30;;;;;;;10.60;5.50;;;-0.70;99.90;;;;;;5031914;28;20585;-66
2022/01/21 08:05:59;;;;;;;7.87;5.30;;;-0.70;99.90;;;;;;5031455;28;20547;-68
2022/01/21 08:08:27;;;;;;;9.40;5.43;;;-0.70;99.90;;;;;;5031481;28;20574;-69
2022/01/21 08:10:54;;;;;;;8.20;5.13;;;-0.70;99.90;;;;;;5030923;28;20230;-67
2022/01/21 08:13:21;;;;;;;11.37;5.33;;;-0.70;99.90;;;;;;5031625;28;20694;-68
2022/01/21 08:15:48;;;;;;;8.40;5.40;;;-0.60;99.90;;;;;;5031001;28;20206;-67
2022/01/21 08:18:15;;;;;;;8.43;5.00;;;-0.60;99.90;;;;;;5031822;28;20206;-66
2022/01/21 08:20:42;;;;;;;12.83;5.63;;;-0.60;99.90;;;;;;5030697;28;20202;-67
2022/01/21 08:23:11;;;;;;;12.30;5.93;;;-0.60;99.90;;;;;;5031605;28;20650;-66
2022/01/21 08:25:38;;;;;;;10.17;4.93;;;-0.50;99.90;;;;;;5030842;28;20610;-66
2022/01/21 08:28:05;;;;;;;12.80;5.33;;;-0.50;99.90;;;;;;5028841;28;20222;-66
2022/01/21 08:30:32;;;;;;;15.30;5.63;;;-0.40;99.90;;;;;;5029442;28;20202;-67
2022/01/21 08:32:59;;;;;;;14.63;5.70;;;-0.30;99.90;;;;;;5035172;28;20576;-66
2022/01/21 08:35:26;;;;;;;9.30;4.97;;;-0.30;99.90;;;;;;5034573;28;20226;-66
2022/01/21 08:37:53;;;;;;;12.67;5.80;;;-0.30;99.90;;;;;;5034788;28;20229;-68
2022/01/21 08:40:22;;;;;;;11.47;5.73;;;-0.30;99.90;;;;;;5034387;28;20210;-68
2022/01/21 08:42:49;;;;;;;14.70;5.90;;;-0.30;99.90;;;;;;5034219;28;20209;-67
2022/01/21 08:45:16;;;;;;;14.10;6.47;;;-0.30;99.90;;;;;;5034838;28;20202;-67
2022/01/21 08:47:44;;;;;;;14.17;6.30;;;-0.30;99.90;;;;;;5034714;28;20598;-66
2022/01/21 08:50:13;;;;;;;14.63;5.93;;;-0.30;99.90;;;;;;5034175;28;20202;-68
2022/01/21 08:52:42;;;;;;;15.93;5.83;;;-0.40;99.90;;;;;;5033991;28;20210;-67
2022/01/21 08:55:11;;;;;;;9.33;5.67;;;-0.40;99.90;;;;;;5034379;28;20218;-67
2022/01/21 08:57:41;;;;;;;11.57;6.53;;;-0.40;99.90;;;;;;5034387;28;20670;-65
2022/01/21 09:00:11;;;;;;;9.53;5.70;;;-0.40;99.90;;;;;;5034845;28;20606;-67
2022/01/21 09:02:38;;;;;;;10.60;5.60;;;-0.30;99.90;;;;;;5033549;28;20194;-66
2022/01/21 09:05:05;;;;;;;12.60;5.80;;;-0.40;99.90;;;;;;5034018;28;20285;-65
2022/01/21 09:07:32;;;;;;;14.40;6.50;;;-0.30;99.90;;;;;;5034054;28;20566;-67
2022/01/21 09:09:59;;;;;;;12.13;6.30;;;-0.30;99.90;;;;;;5033934;28;20234;-66
2022/01/21 09:12:26;;;;;;;11.03;6.23;;;-0.40;99.90;;;;;;5034125;28;20232;-66
2022/01/21 09:14:54;;;;;;;12.77;5.80;;;-0.30;99.90;;;;;;5034367;28;20693;-66
2022/01/21 09:17:21;;;;;;;12.07;6.17;;;-0.30;99.90;;;;;;5033651;28;20201;-67
2022/01/21 09:19:47;;;;;;;16.70;6.53;;;-0.30;99.90;;;;;;5033933;28;20213;-66
2022/01/21 09:22:14;;;;;;;11.57;5.97;;;-0.30;99.90;;;;;;5034178;28;20201;-66
2022/01/21 09:24:41;;;;;;;13.57;6.17;;;-0.30;99.90;;;;;;5033867;28;20536;-68
2022/01/21 09:27:08;;;;;;;13.50;5.67;;;-0.40;99.90;;;;;;5034085;28;20206;-68
2022/01/21 09:29:35;;;;;;;10.80;5.80;;;-0.40;99.90;;;;;;5033561;28;20206;-68
2022/01/21 09:32:05;;;;;;;14.80;5.77;;;-0.40;99.90;;;;;;5033879;28;20221;-68
2022/01/21 09:34:32;;;;;;;12.57;5.53;;;-0.40;99.90;;;;;;5033432;28;20578;-66
2022/01/21 09:37:03;;;;;;;10.83;5.37;;;-0.40;99.90;;;;;;5034103;28;20206;-66
2022/01/21 09:39:32;;;;;;;9.60;5.27;;;-0.40;99.90;;;;;;5033403;28;20241;-67
2022/01/21 09:42:01;;;;;;;12.57;5.73;;;-0.40;99.90;;;;;;5033208;28;20206;-67
2022/01/21 09:44:30;;;;;;;17.43;5.37;;;-0.50;99.90;;;;;;5033602;28;20212;-64
2022/01/21 09:46:59;;;;;;;11.13;5.90;;;-0.50;99.90;;;;;;5033139;28;20300;-67
2022/01/21 09:49:28;;;;;;;17.07;6.73;;;-0.60;99.90;;;;;;5032985;28;20212;-66
2022/01/21 09:51:58;;;;;;;15.23;6.07;;;-0.60;99.90;;;;;;5033469;28;20206;-66
2022/01/21 09:54:27;;;;;;;11.23;5.87;;;-0.60;99.90;;;;;;5033358;28;20228;-67
2022/01/21 09:56:56;;;;;;;16.47;6.47;;;-0.60;99.90;;;;;;5033067;28;20293;-67
2022/01/21 09:59:25;;;;;;;13.83;6.37;;;-0.70;99.90;;;;;;5032948;28;20562;-67
2022/01/21 10:01:55;;;;;;;10.20;5.67;;;-0.70;99.90;;;;;;5033448;28;20540;-66
2022/01/21 10:04:28;;;;;;;14.43;6.03;;;-0.80;99.90;;;;;;5033262;28;20208;-66
2022/01/21 10:06:56;;;;;;;14.73;7.43;;;-0.80;99.90;;;;;;5032772;28;20642;-66
2022/01/21 10:09:24;;;;;;;11.47;6.37;;;-0.70;99.90;;;;;;5032780;28;20202;-68
2022/01/21 10:11:52;;;;;;;15.97;6.70;;;-0.70;99.90;;;;;;5032958;28;20216;-66
2022/01/21 10:14:22;;;;;;;12.63;6.40;;;-0.70;99.90;;;;;;5033658;28;20584;-68
2022/01/21 10:16:49;;;;;;;17.17;7.00;;;-0.70;99.90;;;;;;5024123;28;20201;-67
2022/01/21 10:19:23;;;;;;;13.83;7.10;;;-0.70;99.90;;;;;;5033336;28;20395;-67
2022/01/21 10:21:58;;;;;;;11.37;6.70;;;-0.60;99.90;;;;;;5032133;28;20189;-67
2022/01/21 10:24:25;;;;;;;12.20;6.13;;;-0.50;99.90;;;;;;5032426;28;20288;-66
2022/01/21 10:26:55;;;;;;;16.40;6.87;;;-0.50;99.90;;;;;;5040481;28;20240;-66
2022/01/21 10:29:23;;;;;;;24.50;8.67;;;-0.50;99.90;;;;;;5049535;28;20201;-66
2022/01/21 10:31:55;;;;;;;15.10;6.13;;;-0.40;99.90;;;;;;5031985;28;20547;-68
2022/01/21 10:34:26;;;;;;;16.13;6.60;;;-0.50;99.90;;;;;;5032008;28;20253;-67
2022/01/21 10:37:03;;;;;;;20.03;6.27;;;-0.40;99.90;;;;;;5018049;28;20531;-67
2022/01/21 10:39:31;;;;;;;18.17;6.50;;;-0.40;99.90;;;;;;5040125;28;20247;-66
2022/01/21 10:42:00;;;;;;;17.10;6.50;;;-0.40;99.90;;;;;;5052276;28;20315;-67
2022/01/21 10:44:30;;;;;;;10.73;5.87;;;-0.30;99.90;;;;;;5032315;28;20206;-66
2022/01/21 10:47:07;;;;;;;18.10;6.50;;;-0.30;99.90;;;;;;5031778;28;20237;-67
2022/01/21 10:49:35;;;;;;;12.93;6.00;;;-0.30;99.90;;;;;;5031407;28;20244;-67
2022/01/21 10:52:04;;;;;;;11.97;5.37;;;-0.30;99.90;;;;;;5032139;28;20229;-67
2022/01/21 10:54:31;;;;;;;10.00;5.50;;;-0.20;99.90;;;;;;5030351;28;20218;-67
2022/01/21 10:57:08;;;;;;;13.43;4.80;;;-0.20;99.90;;;;;;5032178;28;20233;-68
2022/01/21 10:59:57;;;;;;;10.60;4.53;;;-0.30;99.90;;;;;;5031688;28;20198;-66
2022/01/21 11:02:36;;;;;;;12.90;5.10;;;-0.40;99.90;;;;;;5031615;28;20232;-67
2022/01/21 11:05:07;;;;;;;12.47;4.50;;;-0.40;99.90;;;;;;5031569;28;20221;-68
2022/01/21 11:07:56;;;;;;;12.57;4.30;;;-0.40;99.90;;;;;;5031434;28;20300;-66
2022/01/21 11:10:45;;;;;;;9.63;4.43;;;-0.40;99.90;;;;;;5031685;28;20234;-69
2022/01/21 11:13:34;;;;;;;9.33;4.20;;;-0.40;99.90;;;;;;5031853;28;20239;-65
2022/01/21 11:16:08;;;;;;;9.57;4.03;;;-0.40;99.90;;;;;;5031832;28;20733;-67
2022/01/21 11:18:49;;;;;;;12.97;3.73;;;-0.40;99.90;;;;;;5032206;28;20700;-67
2022/01/21 11:21:16;;;;;;;17.60;4.60;;;-0.40;99.90;;;;;;5031401;28;20194;-66
2022/01/21 11:23:44;;;;;;;13.03;4.37;;;-0.40;99.90;;;;;;5031842;28;20209;-66
2022/01/21 11:26:16;;;;;;;10.47;4.10;;;-0.30;99.90;;;;;;5031785;28;20206;-68
2022/01/21 11:28:45;;;;;;;17.00;4.47;;;-0.30;99.90;;;;;;5031179;28;20190;-66
2022/01/21 11:31:13;;;;;;;15.13;4.27;;;-0.20;99.90;;;;;;5030873;28;20276;-69
2022/01/21 11:33:40;;;;;;;11.30;3.90;;;-0.20;99.90;;;;;;5031280;28;20209;-66
2022/01/21 11:36:07;;;;;;;16.60;4.17;;;-0.20;99.90;;;;;;5031461;28;20230;-68
2022/01/21 11:38:37;;;;;;;8.07;3.87;;;-0.20;99.90;;;;;;5030767;28;20202;-67
2022/01/21 11:41:07;;;;;;;13.47;4.20;;;-0.20;99.90;;;;;;5031550;28;20186;-68
2022/01/21 11:43:36;;;;;;;11.60;4.20;;;-0.20;99.90;;;;;;5031703;28;20194;-67
2022/01/21 11:48:51;;;;;;;19.80;4.60;;;-0.30;99.90;;;;;;5031133;28;20201;-67
2022/01/21 11:51:20;;;;;;;9.87;4.40;;;-0.30;99.90;;;;;;5030112;28;20200;-67
2022/01/21 11:53:49;;;;;;;17.93;4.30;;;-0.30;99.90;;;;;;5030982;28;20217;-67
2022/01/21 11:56:43;;;;;;;18.67;3.80;;;-0.30;99.90;;;;;;5031142;28;20265;-66
2022/01/21 11:59:23;;;;;;;11.20;4.13;;;-0.30;99.90;;;;;;5031228;28;20191;-67
2022/01/21 12:01:52;;;;;;;13.20;3.97;;;-0.20;99.90;;;;;;5031615;28;20194;-67
2022/01/21 12:04:43;;;;;;;16.53;4.10;;;-0.20;99.90;;;;;;5031433;28;20256;-69
2022/01/21 12:07:57;;;;;;;10.90;3.90;;;-0.10;99.90;;;;;;5016335;28;20195;-67
2022/01/21 12:10:42;;;;;;;14.00;4.73;;;-0.10;99.90;;;;;;5034471;28;20292;-68
2022/01/21 12:13:14;;;;;;;14.63;4.07;;;-0.10;99.90;;;;;;5035216;28;20205;-68
2022/01/21 12:19:09;;;;;;;11.20;4.10;;;-0.10;99.90;;;;;;5034507;28;20193;-67
2022/01/21 12:21:37;;;;;;;13.33;3.97;;;-0.10;99.90;;;;;;5035180;28;20639;-66
2022/01/21 12:24:05;;;;;;;13.03;4.00;;;0.00;99.90;;;;;;5033521;28;20198;-66
2022/01/21 12:26:33;;;;;;;8.63;4.00;;;0.00;99.90;;;;;;5033873;28;20199;-67
2022/01/21 12:29:27;;;;;;;13.63;4.40;;;0.00;99.90;;;;;;5033848;28;20202;-68
2022/01/21 12:32:00;;;;;;;17.73;4.60;;;-0.10;99.90;;;;;;5019381;28;20213;-67
2022/01/21 12:34:28;;;;;;;14.33;4.50;;;-0.20;99.90;;;;;;5033682;28;20554;-68
2022/01/21 12:36:58;;;;;;;11.97;4.40;;;-0.20;99.90;;;;;;5034427;28;20610;-67
2022/01/21 12:39:41;;;;;;;11.50;4.50;;;-0.10;99.90;;;;;;5034330;28;20202;-66
2022/01/21 12:42:25;;;;;;;8.83;4.17;;;-0.10;99.90;;;;;;5033423;28;20222;-66
2022/01/21 12:44:55;;;;;;;8.50;4.17;;;-0.10;99.90;;;;;;5034460;28;20210;-67
2022/01/21 12:47:30;;;;;;;20.83;4.30;;;-0.10;99.90;;;;;;5034089;28;20198;-68
2022/01/21 12:49:59;;;;;;;16.63;4.23;;;-0.10;99.90;;;;;;5014447;28;20216;-67
2022/01/21 12:52:47;;;;;;;10.57;4.00;;;0.00;99.90;;;;;;5014791;28;20219;-68
2022/01/21 12:58:10;;;;;;;7.50;3.80;;;-0.10;99.90;;;;;;5014374;28;20280;-65
2022/01/21 13:00:39;;;;;;;14.93;4.40;;;-0.10;99.90;;;;;;5019384;28;20198;-66
2022/01/21 13:03:16;;;;;;;12.40;4.83;;;-0.10;99.90;;;;;;5034075;28;20293;-65
2022/01/21 13:05:45;;;;;;;12.60;4.10;;;-0.10;99.90;;;;;;5034445;28;20186;-66
2022/01/21 13:08:28;;;;;;;8.63;4.73;;;-0.10;99.90;;;;;;5037932;28;20198;-67
2022/01/21 13:10:55;;;;;;;8.53;4.23;;;-0.10;99.90;;;;;;5013816;28;20266;-65
2022/01/21 13:13:34;;;;;;;8.97;4.83;;;-0.10;99.90;;;;;;5034303;28;20202;-64
2022/01/21 13:16:02;;;;;;;14.23;4.90;;;-0.10;99.90;;;;;;5033496;28;20280;-66
2022/01/21 13:18:32;;;;;;;10.73;4.50;;;-0.10;99.90;;;;;;5034024;28;20692;-67
2022/01/21 13:21:00;;;;;;;11.93;4.60;;;-0.10;99.90;;;;;;5033803;28;20569;-66
2022/01/21 13:23:40;;;;;;;12.63;4.80;;;0.00;99.90;;;;;;5033759;28;20406;-67
2022/01/21 13:26:15;;;;;;;13.23;4.73;;;0.00;99.90;;;;;;5033584;28;20244;-66
2022/01/21 13:29:01;;;;;;;8.13;4.37;;;0.00;99.90;;;;;;5032387;28;20198;-66
2022/01/21 13:31:31;;;;;;;10.43;4.43;;;0.00;99.90;;;;;;5045576;28;20566;-65
2022/01/21 13:34:10;;;;;;;14.63;4.13;;;0.00;99.90;;;;;;5032878;28;20212;-69
2022/01/21 13:36:39;;;;;;;9.90;4.13;;;0.00;99.90;;;;;;5032759;28;20267;-68
2022/01/21 13:39:10;;;;;;;8.10;3.93;;;0.00;99.90;;;;;;5037104;28;20209;-69